createdAt,value
2023-04-26T00:00:49.892Z,3.10
2023-04-26T00:03:16.785Z,3.00
2023-04-26T00:05:43.570Z,3.00
2023-04-26T00:08:10.327Z,2.90
2023-04-26T00:10:37.256Z,3.00
2023-04-26T00:13:04.013Z,2.90
2023-04-26T00:15:31.044Z,2.90
2023-04-26T00:17:57.795Z,2.80
2023-04-26T00:20:24.836Z,2.90
2023-04-26T00:22:51.532Z,2.90
2023-04-26T00:25:18.331Z,2.90
2023-04-26T00:27:45.294Z,2.80
2023-04-26T00:30:12.440Z,2.80
2023-04-26T00:32:39.424Z,2.80
2023-04-26T00:35:06.871Z,2.70
2023-04-26T00:37:33.852Z,2.50
2023-04-26T00:40:00.547Z,2.40
2023-04-26T00:42:27.496Z,2.40
2023-04-26T00:44:57.446Z,2.30
2023-04-26T00:47:26.648Z,2.30
2023-04-26T00:49:53.513Z,2.30
2023-04-26T00:52:20.308Z,2.20
2023-04-26T00:54:48.756Z,2.20
2023-04-26T00:57:15.883Z,2.10
2023-04-26T00:59:42.729Z,2.10
2023-04-26T01:02:09.552Z,2.10
2023-04-26T01:04:37.219Z,2.10
2023-04-26T01:07:04.318Z,2.00
2023-04-26T01:09:32.291Z,2.00
2023-04-26T01:12:00.460Z,1.90
2023-04-26T01:14:28.207Z,2.00
2023-04-26T01:16:56.662Z,1.90
2023-04-26T01:21:50.772Z,1.80
2023-04-26T01:24:17.433Z,1.80
2023-04-26T01:26:45.710Z,1.80
2023-04-26T01:29:18.490Z,1.80
2023-04-26T01:31:46.748Z,1.80
2023-04-26T01:34:14.273Z,1.80
2023-04-26T01:36:41.209Z,1.80
2023-04-26T01:39:09.262Z,1.70
2023-04-26T01:41:35.955Z,1.80
2023-04-26T01:44:02.722Z,1.80
2023-04-26T01:46:29.473Z,1.80
2023-04-26T01:48:57.344Z,1.80
2023-04-26T01:51:24.033Z,1.90
2023-04-26T01:53:50.788Z,1.90
2023-04-26T01:56:18.283Z,2.00
2023-04-26T01:58:45.173Z,2.00
2023-04-26T02:01:12.053Z,2.00
2023-04-26T02:03:38.939Z,2.00
2023-04-26T02:06:05.960Z,2.10
2023-04-26T02:08:32.779Z,2.10
2023-04-26T02:10:59.489Z,2.10
2023-04-26T02:13:26.358Z,2.00
2023-04-26T02:15:53.156Z,2.00
2023-04-26T02:18:22.085Z,1.90
2023-04-26T02:20:49.261Z,1.80
2023-04-26T02:23:16.576Z,1.80
2023-04-26T02:25:46.352Z,1.80
2023-04-26T02:28:13.410Z,1.70
2023-04-26T02:30:40.453Z,1.70
2023-04-26T02:33:07.292Z,1.70
2023-04-26T02:35:34.327Z,1.60
2023-04-26T02:38:01.193Z,1.50
2023-04-26T02:40:27.950Z,1.40
2023-04-26T02:42:54.649Z,1.40
2023-04-26T02:45:21.290Z,1.30
2023-04-26T02:47:48.024Z,1.30
2023-04-26T02:50:14.770Z,1.30
2023-04-26T02:52:41.666Z,1.20
2023-04-26T02:55:08.947Z,1.20
2023-04-26T02:57:35.698Z,1.10
2023-04-26T03:00:02.436Z,1.10
2023-04-26T03:02:29.162Z,1.10
2023-04-26T03:04:56.330Z,1.00
2023-04-26T03:07:23.021Z,1.00
2023-04-26T03:09:49.701Z,0.90
2023-04-26T03:12:16.518Z,0.90
2023-04-26T03:14:43.228Z,0.10
2023-04-26T03:17:09.862Z,0.80
2023-04-26T03:19:36.617Z,0.80
2023-04-26T03:22:03.454Z,0.80
2023-04-26T03:24:30.715Z,0.70
2023-04-26T03:26:57.916Z,0.50
2023-04-26T03:29:24.633Z,2.20
2023-04-26T03:31:51.343Z,0.60
2023-04-26T03:34:18.114Z,0.70
2023-04-26T03:36:44.782Z,0.70
2023-04-26T03:39:11.500Z,0.60
2023-04-26T03:41:40.385Z,0.00
2023-04-26T03:46:34.841Z,0.50
2023-04-26T03:49:01.554Z,0.50
2023-04-26T03:51:28.275Z,0.40
2023-04-26T03:53:55.741Z,0.40
2023-04-26T03:56:22.429Z,0.40
2023-04-26T03:58:49.290Z,0.40
2023-04-26T04:01:16.028Z,0.40
2023-04-26T04:03:42.909Z,0.30
2023-04-26T04:06:09.711Z,0.30
2023-04-26T04:08:36.731Z,0.30
2023-04-26T04:13:30.461Z,0.30
2023-04-26T04:15:57.550Z,0.30
2023-04-26T04:18:24.340Z,0.20
2023-04-26T04:20:51.051Z,0.20
2023-04-26T04:23:17.696Z,0.20
2023-04-26T04:25:45.511Z,0.20
2023-04-26T04:28:12.963Z,0.30
2023-04-26T04:30:39.777Z,0.30
2023-04-26T04:33:06.547Z,0.20
2023-04-26T04:35:34.235Z,0.30
2023-04-26T04:38:02.989Z,0.20
2023-04-26T04:45:28.477Z,0.30
2023-04-26T04:47:56.298Z,0.40
2023-04-26T04:50:23.513Z,0.40
2023-04-26T04:52:50.257Z,-0.20
2023-04-26T04:55:16.933Z,0.40
2023-04-26T04:57:43.668Z,0.50
2023-04-26T05:00:12.551Z,0.50
2023-04-26T05:02:39.530Z,0.60
2023-04-26T05:05:06.921Z,0.80
2023-04-26T05:07:34.266Z,1.50
2023-04-26T05:10:02.039Z,1.60
2023-04-26T05:12:28.753Z,2.10
2023-04-26T05:14:55.709Z,2.40
2023-04-26T05:17:22.511Z,2.90
2023-04-26T05:19:49.322Z,2.80
2023-04-26T05:22:18.409Z,3.10
2023-04-26T05:24:46.904Z,3.30
2023-04-26T05:27:14.292Z,3.50
2023-04-26T05:29:41.591Z,3.50
2023-04-26T05:32:08.641Z,3.40
2023-04-26T05:34:36.585Z,3.30
2023-04-26T05:37:03.657Z,3.20
2023-04-26T05:39:31.809Z,3.10
2023-04-26T05:41:58.535Z,3.10
2023-04-26T05:44:25.384Z,2.90
2023-04-26T05:46:52.055Z,3.10
2023-04-26T05:49:18.810Z,3.20
2023-04-26T05:51:45.555Z,3.20
2023-04-26T05:54:12.283Z,3.40
2023-04-26T05:56:39.020Z,3.40
2023-04-26T05:59:05.759Z,3.60
2023-04-26T06:01:32.663Z,3.80
2023-04-26T06:04:00.977Z,3.80
2023-04-26T06:06:28.410Z,3.90
2023-04-26T06:08:55.711Z,4.10
2023-04-26T06:11:22.437Z,4.30
2023-04-26T06:13:49.170Z,4.40
2023-04-26T06:16:16.568Z,3.80
2023-04-26T06:18:43.834Z,4.60
2023-04-26T06:21:10.675Z,4.70
2023-04-26T06:23:37.375Z,4.80
2023-04-26T06:26:04.096Z,5.00
2023-04-26T06:28:30.926Z,5.20
2023-04-26T06:30:57.697Z,5.30
2023-04-26T06:33:24.498Z,5.40
2023-04-26T06:35:51.608Z,5.60
2023-04-26T06:38:18.265Z,5.90
2023-04-26T06:40:44.916Z,6.10
2023-04-26T06:43:11.625Z,6.30
2023-04-26T06:45:38.413Z,6.50
2023-04-26T06:48:05.549Z,6.90
2023-04-26T06:50:32.364Z,7.00
2023-04-26T06:52:59.051Z,7.20
2023-04-26T06:55:25.826Z,7.30
2023-04-26T06:57:52.565Z,7.40
2023-04-26T07:00:19.620Z,7.40
2023-04-26T07:02:46.414Z,7.50
2023-04-26T07:07:42.015Z,7.60
2023-04-26T07:10:09.545Z,7.70
2023-04-26T07:12:36.497Z,7.80
2023-04-26T07:15:03.987Z,8.10
2023-04-26T07:17:30.926Z,8.20
2023-04-26T07:19:57.776Z,6.90
2023-04-26T07:22:24.624Z,8.20
2023-04-26T07:24:51.360Z,8.20
2023-04-26T07:27:18.025Z,8.70
2023-04-26T07:29:44.670Z,8.80
2023-04-26T07:32:11.571Z,8.90
2023-04-26T07:34:38.266Z,9.20
2023-04-26T07:37:05.006Z,9.40
2023-04-26T07:39:31.687Z,9.40
2023-04-26T07:41:58.380Z,9.40
2023-04-26T07:44:25.101Z,9.30
2023-04-26T07:46:51.845Z,9.20
2023-04-26T07:49:18.533Z,9.30
2023-04-26T07:51:45.720Z,9.20
2023-04-26T07:54:12.578Z,9.00
2023-04-26T07:56:39.277Z,8.90
2023-04-26T07:59:06.016Z,9.00
2023-04-26T08:01:32.670Z,9.10
2023-04-26T08:03:59.761Z,9.10
2023-04-26T08:06:27.702Z,13.10
2023-04-26T08:08:54.459Z,9.90
2023-04-26T08:11:21.737Z,10.00
2023-04-26T08:13:48.579Z,11.00
2023-04-26T08:16:15.460Z,11.40
2023-04-26T08:18:44.662Z,11.60
2023-04-26T08:21:12.856Z,11.60
2023-04-26T08:23:39.593Z,11.40
2023-04-26T08:26:06.590Z,11.30
2023-04-26T08:28:33.443Z,11.20
2023-04-26T08:31:00.381Z,11.20
2023-04-26T08:33:27.156Z,11.40
2023-04-26T08:35:53.887Z,11.60
2023-04-26T08:38:22.674Z,11.70
2023-04-26T08:40:51.220Z,11.60
2023-04-26T08:43:17.909Z,11.50
2023-04-26T08:45:47.525Z,11.50
2023-04-26T08:48:16.127Z,11.60
2023-04-26T08:50:45.573Z,11.60
2023-04-26T08:53:16.964Z,11.70
2023-04-26T08:55:49.392Z,11.70
2023-04-26T08:58:17.747Z,11.80
2023-04-26T09:00:46.499Z,11.70
2023-04-26T09:03:13.723Z,11.60
2023-04-26T09:05:44.186Z,11.60
2023-04-26T09:08:16.164Z,11.30
2023-04-26T09:10:42.905Z,11.10
2023-04-26T09:13:09.625Z,11.20
2023-04-26T09:15:37.853Z,11.20
2023-04-26T09:18:21.677Z,11.20
2023-04-26T09:21:06.791Z,11.30
2023-04-26T09:23:33.832Z,12.10
2023-04-26T09:26:17.390Z,12.80
2023-04-26T09:28:44.395Z,13.10
2023-04-26T09:31:11.268Z,13.30
2023-04-26T09:33:59.511Z,13.10
2023-04-26T09:36:26.261Z,12.70
2023-04-26T09:38:53.157Z,12.90
2023-04-26T09:41:20.000Z,13.10
2023-04-26T09:43:48.270Z,14.00
2023-04-26T09:46:23.965Z,15.20
2023-04-26T09:49:02.099Z,15.50
2023-04-26T09:51:28.840Z,15.30
2023-04-26T09:53:56.735Z,15.10
2023-04-26T09:56:23.648Z,15.50
2023-04-26T09:58:57.835Z,16.30
2023-04-26T10:01:25.565Z,17.60
2023-04-26T10:03:52.809Z,18.50
2023-04-26T10:06:19.779Z,17.70
2023-04-26T10:08:46.888Z,17.00
2023-04-26T10:11:14.051Z,16.00
2023-04-26T10:13:41.488Z,15.30
2023-04-26T10:16:09.756Z,14.90
2023-04-26T10:18:36.668Z,14.50
2023-04-26T10:21:06.401Z,14.10
2023-04-26T10:23:33.308Z,14.00
2023-04-26T10:28:47.894Z,14.10
2023-04-26T10:31:14.440Z,15.60
2023-04-26T10:33:41.078Z,17.20
2023-04-26T10:36:09.975Z,17.60
2023-04-26T10:38:38.131Z,17.50
2023-04-26T10:41:24.622Z,17.10
2023-04-26T10:43:51.456Z,16.70
2023-04-26T10:46:33.510Z,16.10
2023-04-26T10:49:12.091Z,15.20
2023-04-26T10:51:38.684Z,14.80
2023-04-26T10:54:05.548Z,15.10
2023-04-26T10:56:32.183Z,15.90
2023-04-26T11:01:45.563Z,15.90
2023-04-26T11:04:12.715Z,15.80
2023-04-26T11:06:49.129Z,15.60
2023-04-26T11:09:37.061Z,15.80
2023-04-26T11:12:04.579Z,16.00
2023-04-26T11:14:31.368Z,17.30
2023-04-26T11:16:57.935Z,17.80
2023-04-26T11:19:24.543Z,17.60
2023-04-26T11:21:51.109Z,17.10
2023-04-26T11:24:24.598Z,17.00
2023-04-26T11:26:52.001Z,16.40
2023-04-26T11:29:20.408Z,16.30
2023-04-26T11:31:54.889Z,16.70
2023-04-26T11:34:22.912Z,17.10
2023-04-26T11:36:51.036Z,17.60
2023-04-26T11:39:19.501Z,17.90
2023-04-26T11:41:46.130Z,18.30
2023-04-26T11:44:12.785Z,19.00
2023-04-26T11:46:39.560Z,18.70
2023-04-26T11:49:06.716Z,18.00
2023-04-26T11:51:33.396Z,17.40
2023-04-26T11:54:01.285Z,17.90
2023-04-26T11:56:27.879Z,18.20
2023-04-26T11:58:54.641Z,18.10
2023-04-26T12:01:23.517Z,18.30
2023-04-26T12:03:51.628Z,19.40
2023-04-26T12:06:19.130Z,20.50
2023-04-26T12:08:50.046Z,20.60
2023-04-26T12:11:17.033Z,20.90
2023-04-26T12:13:43.614Z,20.80
2023-04-26T12:16:25.617Z,20.30
2023-04-26T12:18:53.722Z,20.10
2023-04-26T12:21:20.686Z,21.20
2023-04-26T12:23:48.107Z,22.30
2023-04-26T12:26:15.156Z,21.70
2023-04-26T12:28:41.806Z,21.10
2023-04-26T12:31:08.940Z,21.20
2023-04-26T12:33:36.086Z,20.80
2023-04-26T12:36:06.493Z,21.10
2023-04-26T12:38:33.044Z,20.30
2023-04-26T12:40:59.742Z,19.40
2023-04-26T12:43:26.646Z,19.20
2023-04-26T12:45:53.723Z,19.80
2023-04-26T12:48:20.344Z,20.90
2023-04-26T12:50:46.926Z,22.00
2023-04-26T12:53:13.990Z,22.40
2023-04-26T12:55:40.610Z,21.80
2023-04-26T12:58:07.228Z,18.80
2023-04-26T13:00:33.829Z,20.70
2023-04-26T13:03:00.511Z,20.90
2023-04-26T13:05:29.584Z,22.00
2023-04-26T13:07:56.289Z,23.10
2023-04-26T13:10:22.967Z,24.00
2023-04-26T13:12:49.587Z,24.60
2023-04-26T13:15:17.561Z,24.60
2023-04-26T13:17:45.496Z,24.90
2023-04-26T13:20:12.352Z,25.30
2023-04-26T13:22:41.828Z,24.60
2023-04-26T13:25:08.492Z,23.60
2023-04-26T13:27:35.091Z,24.00
2023-04-26T13:30:02.012Z,25.30
2023-04-26T13:32:29.124Z,26.30
2023-04-26T13:34:56.781Z,27.80
2023-04-26T13:37:23.829Z,29.20
2023-04-26T13:39:50.424Z,28.90
2023-04-26T13:42:17.494Z,28.50
2023-04-26T13:44:44.254Z,27.90
2023-04-26T13:47:10.988Z,29.70
2023-04-26T13:49:39.535Z,29.70
2023-04-26T13:52:06.379Z,29.90
2023-04-26T13:54:33.116Z,29.00
2023-04-26T13:56:59.812Z,29.80
2023-04-26T13:59:26.773Z,27.00
2023-04-26T14:01:55.687Z,26.10
2023-04-26T14:04:22.773Z,25.20
2023-04-26T14:06:49.544Z,25.20
2023-04-26T14:09:16.439Z,25.70
2023-04-26T14:11:43.359Z,26.50
2023-04-26T14:14:11.188Z,27.60
2023-04-26T14:16:37.935Z,28.70
2023-04-26T14:19:04.647Z,27.50
2023-04-26T14:21:31.644Z,27.00
2023-04-26T14:23:58.354Z,26.10
2023-04-26T14:26:26.100Z,25.30
2023-04-26T14:28:52.788Z,24.00
2023-04-26T14:31:19.775Z,22.50
2023-04-26T14:33:46.634Z,21.30
2023-04-26T14:36:13.346Z,20.70
2023-04-26T14:38:43.089Z,20.60
2023-04-26T14:41:14.432Z,20.40
2023-04-26T14:43:41.274Z,21.60
2023-04-26T14:46:08.141Z,23.30
2023-04-26T14:48:34.885Z,20.70
2023-04-26T14:51:01.615Z,23.50
2023-04-26T14:53:28.393Z,23.40
2023-04-26T14:55:57.425Z,23.70
2023-04-26T14:58:25.266Z,22.20
2023-04-26T15:00:53.215Z,25.60
2023-04-26T15:03:20.648Z,27.20
2023-04-26T15:05:47.623Z,28.60
2023-04-26T15:08:14.807Z,29.70
2023-04-26T15:10:41.687Z,29.30
2023-04-26T15:13:08.417Z,28.30
2023-04-26T15:15:37.540Z,26.70
2023-04-26T15:18:04.551Z,23.10
2023-04-26T15:20:31.267Z,22.40
2023-04-26T15:22:57.979Z,20.90
2023-04-26T15:25:24.657Z,20.90
2023-04-26T15:27:51.581Z,24.10
2023-04-26T15:30:18.267Z,24.80
2023-04-26T15:32:48.459Z,25.80
2023-04-26T15:35:15.656Z,25.90
2023-04-26T15:37:44.044Z,26.10
2023-04-26T15:40:12.013Z,26.10
2023-04-26T15:42:39.289Z,26.10
2023-04-26T15:45:06.943Z,25.60
2023-04-26T15:47:35.698Z,25.70
2023-04-26T15:50:06.476Z,25.60
2023-04-26T15:52:38.546Z,25.10
2023-04-26T15:55:07.204Z,23.70
2023-04-26T15:57:34.520Z,21.70
2023-04-26T16:00:01.797Z,21.40
2023-04-26T16:02:28.619Z,22.40
2023-04-26T16:04:56.392Z,20.20
2023-04-26T16:07:23.572Z,21.80
2023-04-26T16:09:50.338Z,21.80
2023-04-26T16:12:17.068Z,21.40
2023-04-26T16:14:43.917Z,20.60
2023-04-26T16:17:10.666Z,18.20
2023-04-26T16:19:37.377Z,18.10
2023-04-26T16:22:04.244Z,17.20
2023-04-26T16:24:31.068Z,16.50
2023-04-26T16:26:57.895Z,16.00
2023-04-26T16:29:25.191Z,15.50
2023-04-26T16:31:52.602Z,15.20
2023-04-26T16:34:20.062Z,15.00
2023-04-26T16:36:46.777Z,14.70
2023-04-26T16:39:15.794Z,14.30
2023-04-26T16:41:42.983Z,14.00
2023-04-26T16:44:09.777Z,13.70
2023-04-26T16:46:36.927Z,13.40
2023-04-26T16:49:09.286Z,13.10
2023-04-26T16:51:37.977Z,13.00
2023-04-26T16:54:04.903Z,12.90
2023-04-26T16:56:32.222Z,12.80
2023-04-26T16:58:59.498Z,12.80
2023-04-26T17:01:26.831Z,12.80
2023-04-26T17:03:54.464Z,12.90
2023-04-26T17:06:21.328Z,12.50
2023-04-26T17:08:48.438Z,12.80
2023-04-26T17:11:16.228Z,12.80
2023-04-26T17:13:43.585Z,12.80
2023-04-26T17:16:10.564Z,12.70
2023-04-26T17:18:37.592Z,12.60
2023-04-26T17:21:05.701Z,12.50
2023-04-26T17:23:33.592Z,12.40
2023-04-26T17:26:01.673Z,12.30
2023-04-26T17:28:28.822Z,11.70
2023-04-26T17:30:55.502Z,12.00
2023-04-26T17:33:22.315Z,11.90
2023-04-26T17:35:49.031Z,11.70
2023-04-26T17:38:16.060Z,11.50
2023-04-26T17:40:42.804Z,11.50
2023-04-26T17:43:09.504Z,11.40
2023-04-26T17:45:37.739Z,11.30
2023-04-26T17:48:05.274Z,11.20
2023-04-26T17:50:31.972Z,11.10
2023-04-26T17:52:58.688Z,11.00
2023-04-26T17:55:25.375Z,10.90
2023-04-26T17:57:52.033Z,10.60
2023-04-26T18:00:19.050Z,10.50
2023-04-26T18:02:46.263Z,10.40
2023-04-26T18:05:13.450Z,10.20
2023-04-26T18:07:40.320Z,9.90
2023-04-26T18:10:08.022Z,9.90
2023-04-26T18:12:35.342Z,9.70
2023-04-26T18:15:02.120Z,9.50
2023-04-26T18:17:28.910Z,9.10
2023-04-26T18:19:55.845Z,9.10
2023-04-26T18:22:22.614Z,8.90
2023-04-26T18:24:49.283Z,8.40
2023-04-26T18:27:16.212Z,8.30
2023-04-26T18:29:43.147Z,8.20
2023-04-26T18:32:09.926Z,8.10
2023-04-26T18:34:36.622Z,7.90
2023-04-26T18:37:03.281Z,7.60
2023-04-26T18:39:30.377Z,7.50
2023-04-26T18:41:57.289Z,7.60
2023-04-26T18:44:24.037Z,7.30
2023-04-26T18:46:54.933Z,8.20
2023-04-26T18:49:23.078Z,7.20
2023-04-26T18:51:49.845Z,7.10
2023-04-26T18:54:16.693Z,7.10
2023-04-26T18:56:44.006Z,7.00
2023-04-26T18:59:10.995Z,4.50
2023-04-26T19:01:37.909Z,6.80
2023-04-26T19:04:04.853Z,6.70
2023-04-26T19:06:31.643Z,6.70
2023-04-26T19:08:59.498Z,6.60
2023-04-26T19:11:26.730Z,6.60
2023-04-26T19:13:53.504Z,6.50
2023-04-26T19:16:20.305Z,6.40
2023-04-26T19:18:47.306Z,6.30
2023-04-26T19:21:13.958Z,6.20
2023-04-26T19:23:40.818Z,6.10
2023-04-26T19:26:09.739Z,6.10
2023-04-26T19:28:37.916Z,6.00
2023-04-26T19:31:05.031Z,5.90
2023-04-26T19:33:32.461Z,5.90
2023-04-26T19:35:59.236Z,5.80
2023-04-26T19:38:25.962Z,5.70
2023-04-26T19:40:52.991Z,5.70
2023-04-26T19:43:20.085Z,5.60
2023-04-26T19:45:47.408Z,5.50
2023-04-26T19:48:14.178Z,5.30
2023-04-26T19:50:42.659Z,5.40
2023-04-26T19:53:11.131Z,5.30
2023-04-26T19:55:38.072Z,5.30
2023-04-26T19:58:05.491Z,5.20
2023-04-26T20:00:35.588Z,5.20
2023-04-26T20:03:03.018Z,5.10
2023-04-26T20:05:29.977Z,5.10
2023-04-26T20:07:57.430Z,5.00
2023-04-26T20:10:24.263Z,5.00
2023-04-26T20:12:50.985Z,4.90
2023-04-26T20:15:17.994Z,4.80
2023-04-26T20:17:44.758Z,4.70
2023-04-26T20:20:12.162Z,4.70
2023-04-26T20:22:39.773Z,4.70
2023-04-26T20:25:07.141Z,4.60
2023-04-26T20:27:33.983Z,4.60
2023-04-26T20:30:01.045Z,4.60
2023-04-26T20:32:28.123Z,4.50
2023-04-26T20:34:54.941Z,4.50
2023-04-26T20:37:21.990Z,4.40
2023-04-26T20:39:48.982Z,4.40
2023-04-26T20:42:16.072Z,4.30
2023-04-26T20:44:43.131Z,4.30
2023-04-26T20:47:09.843Z,4.30
2023-04-26T20:49:36.733Z,4.20
2023-04-26T20:52:03.763Z,4.20
2023-04-26T20:54:31.221Z,4.20
2023-04-26T20:56:57.946Z,3.70
2023-04-26T20:59:25.631Z,4.10
2023-04-26T21:01:53.818Z,4.20
2023-04-26T21:04:21.078Z,4.20
2023-04-26T21:06:48.125Z,4.20
2023-04-26T21:09:15.142Z,4.20
2023-04-26T21:14:13.739Z,4.10
2023-04-26T21:16:40.749Z,4.10
2023-04-26T21:19:08.371Z,4.10
2023-04-26T21:21:35.749Z,4.10
2023-04-26T21:24:03.951Z,4.10
2023-04-26T21:28:57.937Z,4.10
2023-04-26T21:31:24.774Z,4.10
2023-04-26T21:33:51.433Z,4.10
2023-04-26T21:36:18.263Z,4.00
2023-04-26T21:38:45.068Z,4.00
2023-04-26T21:41:11.748Z,4.00
2023-04-26T21:43:38.623Z,4.00
2023-04-26T21:46:06.577Z,3.90
2023-04-26T21:48:33.330Z,4.00
2023-04-26T21:50:59.999Z,4.00
2023-04-26T21:53:27.051Z,3.70
2023-04-26T21:55:54.437Z,4.10
2023-04-26T21:58:21.950Z,3.90
2023-04-26T22:00:49.527Z,3.90
2023-04-26T22:03:17.148Z,3.90
2023-04-26T22:05:44.113Z,3.90
2023-04-26T22:08:11.039Z,3.90
2023-04-26T22:10:37.915Z,3.90
2023-04-26T22:13:05.331Z,3.90
2023-04-26T22:15:32.141Z,4.00
2023-04-26T22:17:58.932Z,3.90
2023-04-26T22:20:26.483Z,3.90
2023-04-26T22:22:53.705Z,3.80
2023-04-26T22:25:20.696Z,3.80
2023-04-26T22:27:47.702Z,3.70
2023-04-26T22:30:24.679Z,3.70
2023-04-26T22:32:55.699Z,3.70
2023-04-26T22:35:23.962Z,3.70
2023-04-26T22:37:51.093Z,3.70
2023-04-26T22:40:17.935Z,3.70
2023-04-26T22:42:45.098Z,3.60
2023-04-26T22:45:12.932Z,3.80
2023-04-26T22:47:40.799Z,3.60
2023-04-26T22:50:08.135Z,3.60
2023-04-26T22:52:35.701Z,3.60
2023-04-26T22:55:02.950Z,3.50
2023-04-26T22:57:30.929Z,3.40
2023-04-26T22:59:57.958Z,3.30
2023-04-26T23:02:24.949Z,3.30
2023-04-26T23:04:52.003Z,3.30
2023-04-26T23:07:18.788Z,3.20
2023-04-26T23:09:45.682Z,3.20
2023-04-26T23:12:18.423Z,3.20
2023-04-26T23:14:45.119Z,7.30
2023-04-26T23:17:12.157Z,3.10
2023-04-26T23:19:38.938Z,3.10
2023-04-26T23:22:05.575Z,2.70
2023-04-26T23:24:32.203Z,3.10
2023-04-26T23:26:58.939Z,3.10
2023-04-26T23:29:25.621Z,3.00
2023-04-26T23:31:53.610Z,2.90
2023-04-26T23:34:20.306Z,2.90
2023-04-26T23:36:47.157Z,2.90
2023-04-26T23:39:14.032Z,2.80
2023-04-26T23:41:40.982Z,2.80
2023-04-26T23:44:07.637Z,2.80
2023-04-26T23:46:34.423Z,2.80
2023-04-26T23:49:01.118Z,2.90
2023-04-26T23:51:28.030Z,2.90
2023-04-26T23:53:54.807Z,2.90
2023-04-26T23:56:21.565Z,2.90
2023-04-26T23:58:48.242Z,3.00
